createdAt,value
2023-11-06T00:00:59.144Z,10.82
2023-11-06T00:03:27.521Z,0.45
2023-11-06T00:05:55.984Z,1.35
2023-11-06T00:08:27.041Z,1.55
2023-11-06T00:10:55.496Z,2.22
2023-11-06T00:13:23.865Z,1.95
2023-11-06T00:15:53.587Z,0.35
2023-11-06T00:18:22.552Z,0.30
2023-11-06T00:20:51.047Z,1.50
2023-11-06T00:23:20.710Z,0.57
2023-11-06T00:25:49.288Z,0.70
2023-11-06T00:28:17.648Z,0.73
2023-11-06T00:30:46.049Z,1.13
2023-11-06T00:33:15.829Z,1.33
2023-11-06T00:35:44.286Z,0.55
2023-11-06T00:38:13.854Z,0.70
2023-11-06T00:40:42.289Z,0.63
2023-11-06T00:43:10.719Z,2.08
2023-11-06T00:45:39.196Z,0.98
2023-11-06T00:48:08.346Z,0.60
2023-11-06T00:50:38.217Z,2.80
2023-11-06T00:53:09.130Z,0.85
2023-11-06T00:55:40.814Z,1.48
2023-11-06T00:58:09.240Z,0.40
2023-11-06T01:00:38.698Z,1.13
2023-11-06T01:03:07.304Z,0.30
2023-11-06T01:05:35.952Z,1.13
2023-11-06T01:08:06.638Z,0.95
2023-11-06T01:10:35.239Z,0.50
2023-11-06T01:13:04.465Z,2.55
2023-11-06T01:15:34.041Z,1.85
2023-11-06T01:18:02.712Z,1.80
2023-11-06T01:20:31.120Z,0.52
2023-11-06T01:22:59.658Z,1.70
2023-11-06T01:25:29.377Z,2.05
2023-11-06T01:27:57.966Z,5.28
2023-11-06T01:30:26.686Z,2.13
2023-11-06T01:32:55.145Z,3.58
2023-11-06T01:35:26.551Z,2.50
2023-11-06T01:37:54.932Z,0.80
2023-11-06T01:40:23.455Z,2.13
2023-11-06T01:42:53.746Z,2.28
2023-11-06T01:45:22.137Z,0.60
2023-11-06T01:47:52.199Z,3.50
2023-11-06T01:50:22.843Z,1.58
2023-11-06T01:52:51.772Z,0.82
2023-11-06T01:55:20.561Z,1.38
2023-11-06T01:57:49.006Z,1.85
2023-11-06T02:00:20.395Z,1.42
2023-11-06T02:02:49.440Z,2.35
2023-11-06T02:05:18.488Z,2.20
2023-11-06T02:07:47.214Z,3.08
2023-11-06T02:10:17.794Z,2.10
2023-11-06T02:12:48.051Z,4.50
2023-11-06T02:15:16.516Z,5.00
2023-11-06T02:17:46.674Z,3.25
2023-11-06T02:20:15.627Z,3.03
2023-11-06T02:22:44.564Z,5.03
2023-11-06T02:25:14.471Z,25.13
2023-11-06T02:27:42.971Z,2.40
2023-11-06T02:30:11.690Z,3.83
2023-11-06T02:32:40.172Z,1.65
2023-11-06T02:35:09.428Z,1.98
2023-11-06T02:37:38.110Z,1.60
2023-11-06T02:40:08.101Z,3.10
2023-11-06T02:42:38.547Z,3.35
2023-11-06T02:45:07.732Z,1.98
2023-11-06T02:47:36.248Z,2.72
2023-11-06T02:50:06.627Z,5.28
2023-11-06T02:52:35.552Z,1.92
2023-11-06T02:55:03.975Z,1.10
2023-11-06T02:57:32.534Z,0.50
2023-11-06T03:00:02.733Z,1.83
2023-11-06T03:02:31.132Z,0.70
2023-11-06T03:04:59.577Z,1.25
2023-11-06T03:07:28.066Z,1.02
2023-11-06T03:09:56.505Z,2.88
2023-11-06T03:12:24.896Z,0.52
2023-11-06T03:14:54.238Z,1.00
2023-11-06T03:17:24.096Z,2.13
2023-11-06T03:19:52.664Z,1.10
2023-11-06T03:22:21.071Z,1.08
2023-11-06T03:24:49.420Z,2.03
2023-11-06T03:27:17.763Z,1.27
2023-11-06T03:29:46.133Z,1.15
2023-11-06T03:32:14.513Z,2.35
2023-11-06T03:34:46.612Z,1.50
2023-11-06T03:37:14.972Z,1.48
2023-11-06T03:39:43.520Z,2.03
2023-11-06T03:42:13.268Z,2.35
2023-11-06T03:44:41.606Z,2.38
2023-11-06T03:47:10.036Z,0.77
2023-11-06T03:49:38.644Z,3.35
2023-11-06T03:52:12.138Z,1.58
2023-11-06T03:54:40.910Z,2.05
2023-11-06T03:57:09.316Z,3.38
2023-11-06T03:59:37.659Z,1.90
2023-11-06T04:02:06.421Z,2.38
2023-11-06T04:04:34.890Z,7.20
2023-11-06T04:07:03.592Z,1.75
2023-11-06T04:09:34.185Z,3.33
2023-11-06T04:12:04.203Z,2.08
2023-11-06T04:14:32.686Z,4.60
2023-11-06T04:17:01.102Z,2.97
2023-11-06T04:19:29.548Z,4.78
2023-11-06T04:21:57.913Z,8.90
2023-11-06T04:24:26.236Z,10.80
2023-11-06T04:26:55.985Z,4.65
2023-11-06T04:29:24.422Z,3.10
2023-11-06T04:31:53.071Z,5.25
2023-11-06T04:34:21.552Z,4.88
2023-11-06T04:36:49.942Z,7.50
2023-11-06T04:39:18.423Z,3.33
2023-11-06T04:41:46.802Z,1.45
2023-11-06T04:44:16.573Z,1.38
2023-11-06T04:46:45.411Z,1.30
2023-11-06T04:49:13.839Z,0.77
2023-11-06T04:51:42.267Z,0.75
2023-11-06T04:54:10.660Z,0.65
2023-11-06T04:56:42.998Z,0.70
2023-11-06T04:59:11.323Z,1.85
2023-11-06T05:01:42.049Z,6.07
2023-11-06T05:04:10.760Z,2.08
2023-11-06T05:06:39.168Z,17.98
2023-11-06T05:09:07.767Z,8.60
2023-11-06T05:11:36.341Z,8.25
2023-11-06T05:14:04.980Z,10.80
2023-11-06T05:16:33.401Z,10.48
2023-11-06T05:19:03.336Z,5.38
2023-11-06T05:21:32.821Z,4.15
2023-11-06T05:24:02.079Z,3.63
2023-11-06T05:26:31.050Z,5.97
2023-11-06T05:29:00.048Z,5.82
2023-11-06T05:31:30.809Z,15.18
2023-11-06T05:33:59.775Z,5.93
2023-11-06T05:36:30.628Z,7.13
2023-11-06T05:38:59.023Z,7.32
2023-11-06T05:41:27.528Z,2.92
2023-11-06T05:43:56.636Z,3.55
2023-11-06T05:46:26.031Z,3.05
2023-11-06T05:48:54.418Z,7.45
2023-11-06T05:51:22.924Z,2.50
2023-11-06T05:53:52.672Z,4.30
2023-11-06T05:56:21.120Z,3.95
2023-11-06T05:58:49.557Z,1.08
2023-11-06T06:01:18.686Z,2.80
2023-11-06T06:03:47.112Z,2.20
2023-11-06T06:06:17.940Z,2.38
2023-11-06T06:08:46.431Z,1.25
2023-11-06T06:11:16.261Z,0.57
2023-11-06T06:13:44.855Z,0.47
2023-11-06T06:16:13.318Z,0.55
2023-11-06T06:18:41.823Z,2.42
2023-11-06T06:21:10.323Z,1.13
2023-11-06T06:23:39.748Z,0.50
2023-11-06T06:26:08.204Z,1.50
2023-11-06T06:28:38.671Z,1.33
2023-11-06T06:31:08.567Z,1.08
2023-11-06T06:33:37.069Z,1.63
2023-11-06T06:36:05.968Z,1.33
2023-11-06T06:38:34.442Z,2.67
2023-11-06T06:41:03.626Z,1.23
2023-11-06T06:43:33.956Z,2.40
2023-11-06T06:46:04.234Z,2.28
2023-11-06T06:48:32.684Z,0.10
2023-11-06T06:51:00.151Z,0.40
2023-11-06T06:53:29.187Z,0.43
2023-11-06T06:55:57.583Z,0.57
2023-11-06T06:58:26.347Z,1.77
2023-11-06T07:00:54.859Z,3.70
2023-11-06T07:03:24.615Z,2.15
2023-11-06T07:05:53.298Z,1.65
2023-11-06T07:08:24.807Z,0.45
2023-11-06T07:10:53.732Z,0.65
2023-11-06T07:13:22.073Z,2.17
2023-11-06T07:15:50.734Z,0.38
2023-11-06T07:18:19.970Z,0.32
2023-11-06T07:20:50.306Z,4.70
2023-11-06T07:23:18.817Z,0.20
2023-11-06T07:25:48.467Z,0.10
2023-11-06T07:28:17.020Z,0.30
2023-11-06T07:30:45.553Z,0.57
2023-11-06T07:33:13.958Z,0.38
2023-11-06T07:35:42.360Z,1.45
2023-11-06T07:38:12.550Z,0.10
2023-11-06T07:40:41.092Z,0.10
2023-11-06T07:43:10.010Z,0.77
2023-11-06T07:45:38.768Z,0.30
2023-11-06T07:48:08.400Z,0.10
2023-11-06T07:50:36.907Z,0.00
2023-11-06T07:53:05.316Z,0.15
2023-11-06T07:55:35.048Z,0.10
2023-11-06T07:58:03.505Z,0.10
2023-11-06T08:00:40.142Z,0.00
2023-11-06T08:03:15.509Z,0.20
2023-11-06T08:05:44.122Z,0.90
2023-11-06T08:08:12.721Z,1.15
2023-11-06T08:10:42.630Z,0.03
2023-11-06T08:13:11.084Z,0.10
2023-11-06T08:15:39.433Z,0.85
2023-11-06T08:18:07.921Z,0.17
2023-11-06T08:20:36.352Z,0.10
2023-11-06T08:23:04.952Z,0.22
2023-11-06T08:25:35.588Z,1.55
2023-11-06T08:28:05.907Z,2.83
2023-11-06T08:30:34.271Z,0.00
2023-11-06T08:33:03.431Z,0.55
2023-11-06T08:35:31.876Z,0.10
2023-11-06T08:38:03.173Z,0.30
2023-11-06T08:40:31.562Z,0.50
2023-11-06T08:42:59.924Z,0.65
2023-11-06T08:45:30.569Z,1.58
2023-11-06T08:47:59.089Z,0.20
2023-11-06T08:50:27.541Z,0.90
2023-11-06T08:52:55.949Z,0.80
2023-11-06T08:55:24.476Z,0.20
2023-11-06T08:57:52.870Z,0.00
2023-11-06T09:00:21.235Z,0.10
2023-11-06T09:02:52.278Z,0.82
2023-11-06T09:05:20.853Z,0.10
2023-11-06T09:07:49.286Z,0.00
2023-11-06T09:10:20.020Z,0.20
2023-11-06T09:12:48.555Z,0.60
2023-11-06T09:15:16.983Z,3.30
2023-11-06T09:17:46.255Z,0.30
2023-11-06T09:20:16.306Z,0.10
2023-11-06T09:22:44.664Z,0.10
2023-11-06T09:25:13.108Z,2.42
2023-11-06T09:27:44.208Z,1.90
2023-11-06T09:30:13.000Z,1.67
2023-11-06T09:32:41.626Z,0.47
2023-11-06T09:35:10.295Z,0.45
2023-11-06T09:37:40.260Z,0.35
2023-11-06T09:40:12.906Z,0.40
2023-11-06T09:42:41.348Z,1.95
2023-11-06T09:45:10.147Z,1.02
2023-11-06T09:47:39.291Z,0.05
2023-11-06T09:50:11.399Z,0.10
2023-11-06T09:52:41.150Z,0.15
2023-11-06T09:55:10.580Z,0.22
2023-11-06T09:57:39.524Z,1.35
2023-11-06T10:00:10.822Z,0.80
2023-11-06T10:02:39.261Z,1.08
2023-11-06T10:05:13.675Z,0.10
2023-11-06T10:07:44.185Z,0.53
2023-11-06T10:10:13.242Z,0.10
2023-11-06T10:12:41.642Z,10.40
2023-11-06T10:15:12.930Z,1.85
2023-11-06T10:17:41.474Z,0.43
2023-11-06T10:20:15.745Z,0.25
2023-11-06T10:22:56.769Z,0.10
2023-11-06T10:25:28.863Z,0.32
2023-11-06T10:27:57.883Z,0.30
2023-11-06T10:30:26.523Z,3.20
2023-11-06T10:32:54.977Z,0.82
2023-11-06T10:35:25.445Z,0.00
2023-11-06T10:37:55.301Z,0.38
2023-11-06T10:40:33.227Z,1.08
2023-11-06T10:43:04.658Z,4.38
2023-11-06T10:45:34.497Z,0.00
2023-11-06T10:48:11.564Z,0.00
2023-11-06T10:50:40.307Z,0.95
2023-11-06T10:53:12.083Z,0.40
2023-11-06T10:55:40.738Z,0.20
2023-11-06T10:58:10.829Z,0.40
2023-11-06T11:00:39.844Z,0.60
2023-11-06T11:03:10.159Z,3.90
2023-11-06T11:05:39.843Z,0.75
2023-11-06T11:08:10.555Z,0.00
2023-11-06T11:10:39.407Z,0.90
2023-11-06T11:13:10.287Z,0.40
2023-11-06T11:15:42.316Z,0.25
2023-11-06T11:18:12.769Z,1.13
2023-11-06T11:20:52.099Z,0.10
2023-11-06T11:23:36.176Z,0.47
2023-11-06T11:26:05.460Z,0.05
2023-11-06T11:28:48.779Z,0.10
2023-11-06T11:31:33.433Z,11.15
2023-11-06T11:34:02.401Z,0.13
2023-11-06T11:36:31.499Z,0.10
2023-11-06T11:39:02.559Z,0.10
2023-11-06T11:41:31.230Z,0.25
2023-11-06T11:44:06.974Z,0.05
2023-11-06T11:46:52.779Z,0.25
2023-11-06T11:49:37.973Z,1.35
2023-11-06T11:52:06.720Z,0.50
2023-11-06T11:54:38.412Z,0.10
2023-11-06T11:57:07.186Z,0.45
2023-11-06T11:59:39.494Z,0.20
2023-11-06T12:02:09.948Z,0.20
2023-11-06T12:04:38.417Z,0.10
2023-11-06T12:07:07.461Z,2.25
2023-11-06T12:09:49.094Z,0.17
2023-11-06T12:12:22.187Z,0.70
2023-11-06T12:14:50.791Z,1.70
2023-11-06T12:17:29.530Z,0.22
2023-11-06T12:20:00.646Z,0.35
2023-11-06T12:22:29.901Z,0.70
2023-11-06T12:25:00.034Z,0.20
2023-11-06T12:27:35.556Z,0.15
2023-11-06T12:30:08.083Z,0.10
2023-11-06T12:32:37.753Z,0.47
2023-11-06T12:35:06.974Z,0.00
2023-11-06T12:37:48.159Z,0.08
2023-11-06T12:40:18.645Z,0.45
2023-11-06T12:42:47.349Z,0.00
2023-11-06T12:45:32.955Z,0.17
2023-11-06T12:48:04.285Z,0.20
2023-11-06T12:50:36.267Z,0.45
2023-11-06T12:53:04.808Z,0.05
2023-11-06T12:55:35.001Z,0.10
2023-11-06T12:58:10.984Z,0.45
2023-11-06T13:00:43.777Z,2.80
2023-11-06T13:03:12.902Z,2.92
2023-11-06T13:05:42.822Z,0.10
2023-11-06T13:08:11.736Z,0.30
2023-11-06T13:10:41.618Z,0.90
2023-11-06T13:13:10.083Z,1.25
2023-11-06T13:15:38.874Z,0.00
2023-11-06T13:18:08.549Z,0.30
2023-11-06T13:20:39.189Z,0.45
2023-11-06T13:23:07.730Z,0.00
2023-11-06T13:25:36.975Z,3.47
2023-11-06T13:28:07.854Z,0.30
2023-11-06T13:30:36.330Z,1.67
2023-11-06T13:33:08.668Z,0.28
2023-11-06T13:35:38.314Z,0.03
2023-11-06T13:38:08.630Z,0.00
2023-11-06T13:40:37.121Z,0.10
2023-11-06T13:43:08.423Z,1.75
2023-11-06T13:45:36.828Z,1.17
2023-11-06T13:48:10.434Z,5.47
2023-11-06T13:50:51.770Z,0.00
2023-11-06T13:53:24.858Z,0.45
2023-11-06T13:56:08.627Z,0.13
2023-11-06T13:58:44.038Z,0.40
2023-11-06T14:01:14.283Z,0.10
2023-11-06T14:03:48.614Z,0.00
2023-11-06T14:06:19.310Z,0.08
2023-11-06T14:08:48.180Z,0.10
2023-11-06T14:11:17.077Z,0.10
2023-11-06T14:13:49.036Z,0.68
2023-11-06T14:16:20.390Z,0.10
2023-11-06T14:18:51.693Z,0.00
2023-11-06T14:21:20.916Z,0.00
2023-11-06T14:23:49.760Z,0.20
2023-11-06T14:26:18.277Z,0.20
2023-11-06T14:28:48.711Z,1.27
2023-11-06T14:31:17.090Z,0.00
2023-11-06T14:33:45.638Z,0.60
2023-11-06T14:36:15.163Z,1.67
2023-11-06T14:38:43.666Z,0.13
2023-11-06T14:41:13.331Z,0.40
2023-11-06T14:43:42.008Z,0.10
2023-11-06T14:46:11.814Z,1.25
2023-11-06T14:48:46.160Z,0.08
2023-11-06T14:51:19.548Z,0.00
2023-11-06T14:53:48.073Z,0.15
2023-11-06T14:56:17.720Z,0.40
2023-11-06T14:58:47.120Z,0.68
2023-11-06T15:01:16.974Z,2.95
2023-11-06T15:03:46.273Z,3.88
2023-11-06T15:06:15.006Z,1.35
2023-11-06T15:08:47.796Z,3.92
2023-11-06T15:11:20.349Z,0.63
2023-11-06T15:13:49.113Z,0.70
2023-11-06T15:16:19.014Z,4.18
2023-11-06T15:18:47.475Z,0.75
2023-11-06T15:21:16.027Z,3.03
2023-11-06T15:23:45.155Z,2.65
2023-11-06T15:26:14.746Z,6.72
2023-11-06T15:28:43.249Z,8.68
2023-11-06T15:31:12.373Z,3.35
2023-11-06T15:33:42.298Z,7.13
2023-11-06T15:36:11.370Z,5.40
2023-11-06T15:38:40.070Z,5.68
2023-11-06T15:41:08.563Z,9.45
2023-11-06T15:43:38.839Z,15.32
2023-11-06T15:46:08.795Z,9.40
2023-11-06T15:48:41.112Z,9.77
2023-11-06T15:51:10.940Z,11.82
2023-11-06T15:53:39.396Z,10.75
2023-11-06T15:56:10.571Z,2.67
2023-11-06T15:58:39.003Z,7.05
2023-11-06T16:01:07.889Z,1.05
2023-11-06T16:03:36.431Z,2.72
2023-11-06T16:06:06.014Z,1.20
2023-11-06T16:08:37.421Z,6.65
2023-11-06T16:11:12.678Z,0.30
2023-11-06T16:16:09.713Z,1.10
2023-11-06T16:18:38.126Z,0.63
2023-11-06T16:21:07.289Z,3.38
2023-11-06T16:23:41.423Z,2.08
2023-11-06T16:26:10.132Z,1.37
2023-11-06T16:28:40.260Z,6.50
2023-11-06T16:31:09.414Z,10.57
2023-11-06T16:33:38.064Z,7.63
2023-11-06T16:36:11.631Z,6.68
2023-11-06T16:38:43.224Z,6.88
2023-11-06T16:41:11.860Z,3.97
2023-11-06T16:43:40.299Z,3.90
2023-11-06T16:46:10.185Z,4.68
2023-11-06T16:48:39.169Z,6.15
2023-11-06T16:51:08.010Z,7.60
2023-11-06T16:53:36.541Z,9.30
2023-11-06T16:56:14.270Z,16.75
2023-11-06T16:58:43.251Z,11.13
2023-11-06T17:01:16.284Z,17.65
2023-11-06T17:03:45.241Z,14.65
2023-11-06T17:06:14.382Z,16.80
2023-11-06T17:08:43.978Z,6.20
2023-11-06T17:11:16.068Z,10.93
2023-11-06T17:13:44.555Z,8.32
2023-11-06T17:16:16.766Z,9.27
2023-11-06T17:18:45.773Z,14.65
2023-11-06T17:21:14.514Z,14.85
2023-11-06T17:23:42.979Z,7.72
2023-11-06T17:26:11.461Z,14.90
2023-11-06T17:28:41.304Z,9.48
2023-11-06T17:31:10.425Z,17.70
2023-11-06T17:33:38.939Z,12.38
2023-11-06T17:36:07.873Z,15.23
2023-11-06T17:38:37.055Z,20.45
2023-11-06T17:41:05.790Z,16.20
2023-11-06T17:43:34.446Z,17.08
2023-11-06T17:46:07.144Z,18.05
2023-11-06T17:48:35.703Z,14.35
2023-11-06T17:51:05.738Z,14.68
2023-11-06T17:53:34.155Z,10.00
2023-11-06T17:56:03.658Z,10.50
2023-11-06T17:58:31.996Z,22.83
2023-11-06T18:01:04.963Z,22.95
2023-11-06T18:03:34.890Z,13.10
2023-11-06T18:06:03.688Z,12.68
2023-11-06T18:08:32.074Z,18.05
2023-11-06T18:11:00.407Z,25.52
2023-11-06T18:13:31.744Z,38.13
2023-11-06T18:16:00.593Z,38.78
2023-11-06T18:18:29.709Z,20.02
2023-11-06T18:21:02.155Z,17.27
2023-11-06T18:23:33.169Z,27.05
2023-11-06T18:26:01.692Z,45.75
2023-11-06T18:28:30.385Z,30.23
2023-11-06T18:30:58.794Z,28.35
2023-11-06T18:33:27.371Z,15.82
2023-11-06T18:35:55.861Z,13.13
2023-11-06T18:38:28.557Z,26.35
2023-11-06T18:40:57.005Z,15.05
2023-11-06T18:43:25.360Z,19.60
2023-11-06T18:45:53.755Z,17.80
2023-11-06T18:48:22.252Z,18.85
2023-11-06T18:50:50.739Z,16.63
2023-11-06T18:53:19.271Z,20.15
2023-11-06T18:55:49.960Z,17.38
2023-11-06T18:58:18.378Z,16.88
2023-11-06T19:00:46.734Z,10.20
2023-11-06T19:03:15.393Z,14.18
2023-11-06T19:05:46.123Z,22.25
2023-11-06T19:08:14.900Z,16.25
2023-11-06T19:10:43.607Z,11.73
2023-11-06T19:13:14.114Z,16.10
2023-11-06T19:15:42.567Z,15.75
2023-11-06T19:18:11.568Z,26.30
2023-11-06T19:20:40.041Z,18.58
2023-11-06T19:23:08.740Z,18.00
2023-11-06T19:25:38.556Z,13.95
2023-11-06T19:28:07.643Z,13.07
2023-11-06T19:30:38.456Z,21.33
2023-11-06T19:33:07.582Z,14.98
2023-11-06T19:35:36.161Z,17.98
2023-11-06T19:38:05.298Z,15.25
2023-11-06T19:40:33.825Z,16.88
2023-11-06T19:43:02.416Z,15.70
2023-11-06T19:45:31.029Z,19.85
2023-11-06T19:48:01.061Z,16.30
2023-11-06T19:50:29.801Z,26.73
2023-11-06T19:52:58.354Z,8.43
2023-11-06T19:55:27.035Z,10.25
2023-11-06T19:57:57.048Z,7.95
2023-11-06T20:00:26.832Z,8.95
2023-11-06T20:02:55.488Z,14.23
2023-11-06T20:05:25.567Z,9.63
2023-11-06T20:07:53.941Z,8.18
2023-11-06T20:10:22.492Z,19.70
2023-11-06T20:12:50.859Z,12.95
2023-11-06T20:15:19.218Z,18.58
2023-11-06T20:17:47.626Z,24.73
2023-11-06T20:20:18.352Z,15.07
2023-11-06T20:22:49.749Z,27.33
2023-11-06T20:25:18.070Z,10.77
2023-11-06T20:27:46.556Z,13.68
2023-11-06T20:30:15.448Z,16.98
2023-11-06T20:32:46.876Z,20.02
2023-11-06T20:35:15.447Z,40.70
2023-11-06T20:37:43.829Z,17.58
2023-11-06T20:40:13.831Z,11.88
2023-11-06T20:42:43.505Z,24.00
2023-11-06T20:45:13.171Z,7.13
2023-11-06T20:47:42.291Z,19.63
2023-11-06T20:50:12.107Z,9.05
2023-11-06T20:52:40.604Z,16.73
2023-11-06T20:55:09.600Z,11.85
2023-11-06T20:57:39.762Z,6.15
2023-11-06T21:00:09.830Z,6.40
2023-11-06T21:02:40.754Z,8.23
2023-11-06T21:05:09.943Z,8.35
2023-11-06T21:07:38.386Z,6.70
2023-11-06T21:10:08.036Z,6.88
2023-11-06T21:12:36.433Z,6.43
2023-11-06T21:15:06.872Z,13.27
2023-11-06T21:17:35.399Z,9.65
2023-11-06T21:20:05.086Z,14.35
2023-11-06T21:22:33.481Z,6.35
2023-11-06T21:25:02.142Z,5.10
2023-11-06T21:27:30.636Z,6.40
2023-11-06T21:29:59.148Z,11.77
2023-11-06T21:32:29.656Z,5.60
2023-11-06T21:34:58.143Z,6.00
2023-11-06T21:37:28.161Z,11.95
2023-11-06T21:39:56.523Z,6.10
2023-11-06T21:42:24.872Z,6.07
2023-11-06T21:44:53.343Z,16.88
2023-11-06T21:47:22.050Z,12.45
2023-11-06T21:49:53.525Z,7.82
2023-11-06T21:52:23.536Z,8.00
2023-11-06T21:54:55.062Z,5.97
2023-11-06T21:57:24.763Z,10.98
2023-11-06T21:59:53.345Z,8.77
2023-11-06T22:02:23.741Z,5.72
2023-11-06T22:04:53.901Z,6.97
2023-11-06T22:07:22.361Z,5.20
2023-11-06T22:09:51.859Z,7.28
2023-11-06T22:12:20.648Z,17.58
2023-11-06T22:14:49.180Z,9.02
2023-11-06T22:17:17.626Z,3.55
2023-11-06T22:19:46.098Z,3.53
2023-11-06T22:22:15.896Z,6.57
2023-11-06T22:24:44.277Z,13.73
2023-11-06T22:27:12.671Z,4.28
2023-11-06T22:29:41.013Z,2.55
2023-11-06T22:32:10.241Z,5.35
2023-11-06T22:34:38.615Z,6.57
2023-11-06T22:37:07.006Z,9.38
2023-11-06T22:39:37.424Z,13.23
2023-11-06T22:42:06.062Z,12.20
2023-11-06T22:44:34.542Z,16.75
2023-11-06T22:47:03.408Z,7.85
2023-11-06T22:49:31.898Z,9.13
2023-11-06T22:52:00.503Z,4.55
2023-11-06T22:54:29.162Z,4.70
2023-11-06T22:56:58.994Z,3.30
2023-11-06T22:59:27.377Z,6.60
2023-11-06T23:01:56.093Z,4.22
2023-11-06T23:04:24.618Z,3.40
2023-11-06T23:06:54.910Z,4.38
2023-11-06T23:09:23.487Z,9.52
2023-11-06T23:11:51.973Z,3.30
2023-11-06T23:14:22.316Z,4.13
2023-11-06T23:16:52.353Z,4.72
2023-11-06T23:19:20.946Z,7.63
2023-11-06T23:21:49.322Z,12.50
2023-11-06T23:24:18.092Z,7.85
2023-11-06T23:26:47.472Z,4.65
2023-11-06T23:29:16.389Z,8.70
2023-11-06T23:31:46.184Z,6.38
2023-11-06T23:34:16.124Z,5.10
2023-11-06T23:36:44.793Z,7.22
2023-11-06T23:39:13.483Z,5.47
2023-11-06T23:41:45.167Z,5.50
2023-11-06T23:44:14.302Z,3.25
2023-11-06T23:46:42.947Z,3.40
2023-11-06T23:49:12.751Z,5.47
2023-11-06T23:51:41.133Z,5.63
2023-11-06T23:54:12.035Z,5.10
2023-11-06T23:56:42.444Z,3.72
2023-11-06T23:59:12.925Z,5.50
